Time;durP1;ratioP1;P1;durP2;ratioP2;P2;SDS_P1;SDS_P2;PMS_P1;PMS_P2;Temp;Humidity;BMP_temperature;BMP_pressure;BME280_temperature;BME280_humidity;BME280_pressure;Samples;Min_cycle;Max_cycle;Signal;HPM_P1;HPM_P2
2023/09/09 00:01:08;;;;;;;1.50;1.40;;;16.80;99.90;;;;;;5324108;23;20470;-86
2023/09/09 00:06:13;;;;;;;2.17;2.00;;;16.80;99.90;;;;;;4903002;23;20487;-85
2023/09/09 00:08:43;;;;;;;2.20;2.10;;;16.80;99.90;;;;;;5071855;23;20589;-86
2023/09/09 00:11:11;;;;;;;3.27;2.97;;;16.80;99.90;;;;;;4888626;29;20463;-86
2023/09/09 00:13:38;;;;;;;2.70;2.50;;;16.80;99.90;;;;;;5038999;23;20487;-87
2023/09/09 00:21:34;;;;;;;1.70;1.60;;;16.90;99.90;;;;;;5045067;23;20495;-86
2023/09/09 00:24:02;;;;;;;3.07;2.87;;;16.90;99.90;;;;;;5048361;23;20463;-84
2023/09/09 00:26:29;;;;;;;2.10;2.00;;;16.90;99.90;;;;;;4881717;29;20479;-85
2023/09/09 00:28:57;;;;;;;2.13;2.03;;;16.80;99.90;;;;;;5037973;23;20523;-86
2023/09/09 00:31:23;;;;;;;3.13;2.93;;;16.80;99.90;;;;;;5092686;23;20769;-83
2023/09/09 00:33:53;;;;;;;2.30;2.20;;;16.70;99.90;;;;;;5351869;23;20585;-86
2023/09/09 00:44:19;;;;;;;1.97;1.87;;;16.50;99.90;;;;;;5540283;23;20524;-86
2023/09/09 00:46:49;;;;;;;1.60;1.50;;;16.50;99.90;;;;;;4874102;29;20468;-89
2023/09/09 00:49:16;;;;;;;2.07;1.97;;;16.60;99.90;;;;;;4873951;29;20464;-89
2023/09/09 00:51:44;;;;;;;2.53;2.43;;;16.60;99.90;;;;;;5440516;23;20855;-85
2023/09/09 00:54:11;;;;;;;1.67;1.57;;;16.70;99.90;;;;;;5333236;23;20490;-83
2023/09/09 00:56:38;;;;;;;1.93;1.83;;;16.60;99.90;;;;;;4898589;29;20486;-84
2023/09/09 00:59:07;;;;;;;1.97;1.87;;;16.50;99.90;;;;;;5135612;23;20560;-82
2023/09/09 01:01:34;;;;;;;2.33;2.23;;;16.70;99.90;;;;;;5206568;23;20769;-84
2023/09/09 01:04:00;;;;;;;2.03;1.90;;;16.60;99.90;;;;;;4919985;23;20502;-83
2023/09/09 01:09:05;;;;;;;1.87;1.77;;;16.50;99.90;;;;;;5065890;23;20512;-87
2023/09/09 01:11:32;;;;;;;2.63;2.43;;;16.40;99.90;;;;;;5015778;23;21512;-89
2023/09/09 01:14:01;;;;;;;2.13;2.03;;;16.30;99.90;;;;;;4882187;29;20508;-83
2023/09/09 01:18:56;;;;;;;11.03;1.87;;;16.20;99.90;;;;;;4931397;23;20501;-81
2023/09/09 01:21:29;;;;;;;3.17;2.93;;;16.20;99.90;;;;;;4889311;29;20473;-84
2023/09/09 01:23:56;;;;;;;2.47;2.27;;;16.20;99.90;;;;;;4879760;29;20470;-84
2023/09/09 01:26:23;;;;;;;3.13;2.93;;;16.20;99.90;;;;;;4880190;29;20976;-86
2023/09/09 01:28:52;;;;;;;2.40;2.30;;;16.20;99.90;;;;;;4900168;29;20435;-80
2023/09/09 01:31:19;;;;;;;1.57;1.53;;;16.20;99.90;;;;;;4868529;29;20430;-85
2023/09/09 01:33:46;;;;;;;1.23;1.23;;;16.10;99.90;;;;;;4887978;29;20476;-84
2023/09/09 01:36:13;;;;;;;2.43;2.23;;;16.00;99.90;;;;;;4888729;29;20455;-87
2023/09/09 01:38:43;;;;;;;2.90;2.43;;;16.20;99.90;;;;;;4888030;29;20471;-84
2023/09/09 01:41:09;;;;;;;3.13;3.03;;;16.00;99.90;;;;;;4875345;29;20515;-84
2023/09/09 01:43:36;;;;;;;3.93;3.50;;;16.10;99.90;;;;;;4875408;29;20451;-84
2023/09/09 01:46:05;;;;;;;2.83;2.63;;;16.00;99.90;;;;;;4942892;23;20569;-85
2023/09/09 01:48:32;;;;;;;1.80;1.70;;;16.00;99.90;;;;;;5073634;23;20825;-85
2023/09/09 01:51:00;;;;;;;1.10;1.10;;;15.90;99.90;;;;;;5081795;23;20508;-86
2023/09/09 01:58:53;;;;;;;2.63;2.53;;;15.60;99.90;;;;;;5401968;23;20503;-89
2023/09/09 02:01:21;;;;;;;2.40;2.30;;;15.60;99.90;;;;;;5517023;23;20559;-90
2023/09/09 02:03:51;;;;;;;1.30;1.30;;;15.60;99.90;;;;;;4876584;29;20559;-86
2023/09/09 02:06:19;;;;;;;2.57;2.37;;;15.50;99.90;;;;;;4877435;29;20455;-86
2023/09/09 02:16:46;;;;;;;2.10;2.00;;;15.40;99.90;;;;;;5544335;23;20500;-88
2023/09/09 02:21:55;;;;;;;2.33;2.13;;;15.20;99.90;;;;;;5072376;23;20506;-84
2023/09/09 02:24:23;;;;;;;2.60;2.40;;;15.20;99.90;;;;;;4882465;29;20513;-87
2023/09/09 02:26:50;;;;;;;1.40;1.40;;;15.10;99.90;;;;;;4879266;29;20462;-86
2023/09/09 02:29:17;;;;;;;3.63;3.47;;;15.20;99.90;;;;;;4879378;29;20724;-85
2023/09/09 02:31:44;;;;;;;1.43;1.33;;;15.10;99.90;;;;;;4884697;29;20486;-84
2023/09/09 02:34:13;;;;;;;3.67;3.47;;;15.10;99.90;;;;;;4884110;29;20456;-86
2023/09/09 02:36:45;;;;;;;1.57;1.50;;;15.10;99.90;;;;;;4864046;29;20557;-86
2023/09/09 02:39:13;;;;;;;1.77;1.67;;;15.20;99.90;;;;;;4876221;29;20727;-86
2023/09/09 02:41:40;;;;;;;1.37;1.37;;;15.20;99.90;;;;;;4883490;29;20590;-87
2023/09/09 02:44:08;;;;;;;3.03;2.83;;;15.10;99.90;;;;;;4882385;29;20485;-85
2023/09/09 02:46:35;;;;;;;2.23;2.13;;;15.10;99.90;;;;;;4884814;29;20467;-85
2023/09/09 02:49:02;;;;;;;3.37;3.17;;;15.20;99.90;;;;;;4885714;29;20454;-87
2023/09/09 02:51:29;;;;;;;2.60;2.47;;;15.10;99.90;;;;;;4888446;29;20849;-85
2023/09/09 02:53:57;;;;;;;4.27;3.13;;;15.00;99.90;;;;;;4881353;29;20514;-86
2023/09/09 02:56:24;;;;;;;2.30;2.20;;;14.90;99.90;;;;;;4875987;29;20502;-84
2023/09/09 02:58:51;;;;;;;2.67;2.53;;;14.90;99.90;;;;;;4887118;29;20539;-84
2023/09/09 03:01:18;;;;;;;2.37;2.27;;;14.90;99.90;;;;;;4879509;29;20543;-82
2023/09/09 03:03:45;;;;;;;1.90;1.80;;;14.90;99.90;;;;;;4875455;29;20553;-83
2023/09/09 03:06:12;;;;;;;1.90;1.80;;;14.90;99.90;;;;;;4879400;29;20458;-83
2023/09/09 03:08:39;;;;;;;5.10;4.10;;;14.90;99.90;;;;;;4884214;29;20676;-83
2023/09/09 03:11:06;;;;;;;2.33;2.13;;;14.80;99.90;;;;;;4884665;29;20510;-84
2023/09/09 03:13:33;;;;;;;3.23;3.03;;;14.80;99.90;;;;;;4884668;29;20527;-85
2023/09/09 03:16:00;;;;;;;1.50;1.40;;;14.80;99.90;;;;;;4884279;29;20526;-84
2023/09/09 03:18:27;;;;;;;2.10;2.00;;;14.90;99.90;;;;;;4879846;29;20446;-85
2023/09/09 03:20:54;;;;;;;2.23;2.13;;;14.80;99.90;;;;;;4878084;29;20462;-83
2023/09/09 03:23:21;;;;;;;5.37;4.97;;;14.90;99.90;;;;;;4884148;29;20470;-87
2023/09/09 03:25:48;;;;;;;1.57;1.47;;;14.90;99.90;;;;;;4877548;29;20497;-86
2023/09/09 03:28:15;;;;;;;1.50;1.50;;;14.80;99.90;;;;;;4886462;29;20462;-88
2023/09/09 03:30:56;;;;;;;3.20;3.00;;;14.80;99.90;;;;;;4888917;29;20918;-87
2023/09/09 03:33:24;;;;;;;1.47;1.40;;;14.70;99.90;;;;;;4890045;29;20624;-87
2023/09/09 03:35:51;;;;;;;2.47;2.37;;;14.70;99.90;;;;;;4884036;29;20478;-85
2023/09/09 03:38:19;;;;;;;2.33;2.23;;;14.70;99.90;;;;;;5075766;23;20603;-86
2023/09/09 03:43:21;;;;;;;1.90;1.80;;;14.60;99.90;;;;;;5283678;23;20513;-83
2023/09/09 03:45:55;;;;;;;2.87;2.67;;;14.60;99.90;;;;;;5028215;23;20503;-83
2023/09/09 03:48:23;;;;;;;1.30;1.30;;;14.60;99.90;;;;;;4895869;29;20484;-88
2023/09/09 03:50:57;;;;;;;3.03;2.87;;;14.60;99.90;;;;;;4902861;29;20665;-89
2023/09/09 03:53:24;;;;;;;3.00;2.83;;;14.50;99.90;;;;;;4899170;29;20452;-87
2023/09/09 03:55:51;;;;;;;1.00;1.00;;;14.40;99.90;;;;;;4890097;29;20505;-88
2023/09/09 03:58:19;;;;;;;3.17;2.97;;;14.50;99.90;;;;;;4890713;29;20458;-84
2023/09/09 04:00:49;;;;;;;2.00;1.90;;;14.50;99.90;;;;;;4891219;29;20459;-82
2023/09/09 04:03:16;;;;;;;1.57;1.47;;;14.50;99.90;;;;;;4895458;29;20512;-86
2023/09/09 04:05:46;;;;;;;1.90;1.80;;;14.50;99.90;;;;;;4907199;29;20500;-81
2023/09/09 04:08:13;;;;;;;1.00;1.00;;;14.50;99.90;;;;;;4899436;29;20482;-84
2023/09/09 04:10:40;;;;;;;5.93;4.40;;;14.40;99.90;;;;;;4897852;29;20484;-87
2023/09/09 04:13:07;;;;;;;2.40;1.63;;;14.40;99.90;;;;;;4904091;29;20784;-88
2023/09/09 04:15:37;;;;;;;4.67;4.37;;;14.40;99.90;;;;;;4900636;29;20464;-84
2023/09/09 04:18:04;;;;;;;2.63;2.30;;;14.40;99.90;;;;;;4884324;29;20536;-85
2023/09/09 04:20:31;;;;;;;3.00;2.80;;;14.50;99.90;;;;;;5296069;23;20493;-90
2023/09/09 04:22:58;;;;;;;2.97;2.50;;;14.40;99.90;;;;;;4892066;29;20494;-88
2023/09/09 04:25:25;;;;;;;2.73;2.63;;;14.40;99.90;;;;;;4891711;29;20487;-86
2023/09/09 04:27:57;;;;;;;1.30;1.23;;;14.40;99.90;;;;;;5048872;23;20541;-85
2023/09/09 04:30:24;;;;;;;1.27;1.27;;;14.40;99.90;;;;;;5114520;23;20581;-84
2023/09/09 04:32:51;;;;;;;1.97;1.87;;;14.40;99.90;;;;;;4888817;29;20526;-84
2023/09/09 04:35:21;;;;;;;2.10;2.00;;;14.40;99.90;;;;;;4891754;29;20450;-85
2023/09/09 04:37:50;;;;;;;2.10;2.00;;;14.50;99.90;;;;;;4934944;23;20572;-87
2023/09/09 04:40:17;;;;;;;3.70;3.17;;;14.50;99.90;;;;;;4891462;29;20515;-87
2023/09/09 04:42:44;;;;;;;1.83;1.73;;;14.50;99.90;;;;;;5233130;23;20464;-89
2023/09/09 04:45:11;;;;;;;2.93;2.80;;;14.50;99.90;;;;;;4886077;29;20503;-82
2023/09/09 04:47:39;;;;;;;2.30;2.20;;;14.60;99.90;;;;;;5370747;23;20601;-86
2023/09/09 04:52:53;;;;;;;1.97;1.87;;;14.70;99.90;;;;;;5282278;23;21119;-86
2023/09/09 04:55:20;;;;;;;1.60;1.50;;;14.80;99.90;;;;;;5062079;23;20581;-80
2023/09/09 04:57:48;;;;;;;2.90;2.80;;;14.80;99.90;;;;;;4886653;29;20484;-85
2023/09/09 05:00:15;;;;;;;1.90;1.80;;;14.90;99.90;;;;;;4887257;29;20519;-83
2023/09/09 05:02:43;;;;;;;2.03;1.93;;;15.00;99.90;;;;;;4880690;29;20828;-85
2023/09/09 05:05:10;;;;;;;4.10;3.70;;;15.10;99.90;;;;;;4888320;29;20495;-88
2023/09/09 05:07:38;;;;;;;3.13;2.93;;;15.20;99.90;;;;;;4870594;29;20466;-83
2023/09/09 05:10:06;;;;;;;4.77;4.50;;;15.30;99.90;;;;;;4898109;29;20459;-84
2023/09/09 05:12:35;;;;;;;2.53;2.43;;;15.40;99.90;;;;;;4896088;29;20435;-84
2023/09/09 05:15:06;;;;;;;2.00;1.90;;;15.50;99.90;;;;;;4891545;29;20803;-85
2023/09/09 05:17:33;;;;;;;3.50;3.13;;;15.70;99.90;;;;;;4891203;29;20513;-86
2023/09/09 05:20:01;;;;;;;2.10;2.00;;;15.70;99.90;;;;;;4891176;29;20454;-86
2023/09/09 05:22:28;;;;;;;3.63;3.43;;;15.90;99.90;;;;;;4890354;29;20482;-86
2023/09/09 05:24:55;;;;;;;5.37;4.97;;;16.00;99.90;;;;;;4887738;29;20755;-86
2023/09/09 05:27:22;;;;;;;5.90;5.50;;;16.00;99.90;;;;;;4880444;29;20456;-85
2023/09/09 05:29:49;;;;;;;2.30;2.20;;;16.10;99.90;;;;;;4885625;29;20578;-83
2023/09/09 05:32:16;;;;;;;1.80;1.70;;;16.20;99.90;;;;;;4885128;29;20927;-85
2023/09/09 05:34:43;;;;;;;6.60;3.10;;;16.40;99.90;;;;;;4888360;29;20642;-87
2023/09/09 05:37:10;;;;;;;3.60;3.23;;;16.20;99.90;;;;;;4952664;23;20708;-83
2023/09/09 05:39:40;;;;;;;1.97;1.87;;;16.40;99.90;;;;;;4885331;29;20451;-83
2023/09/09 05:42:06;;;;;;;2.33;2.17;;;16.50;99.90;;;;;;4961580;23;20600;-86
2023/09/09 05:47:16;;;;;;;3.23;3.03;;;16.80;99.90;;;;;;5207482;23;21764;-87
2023/09/09 05:49:43;;;;;;;3.33;3.07;;;16.90;99.90;;;;;;4877624;29;20444;-82
2023/09/09 05:52:11;;;;;;;1.97;1.90;;;16.90;99.90;;;;;;4887781;29;20475;-84
2023/09/09 05:54:52;;;;;;;1.97;1.87;;;17.20;99.90;;;;;;5409376;23;20496;-83
2023/09/09 05:57:20;;;;;;;1.33;1.23;;;17.30;99.90;;;;;;5422827;23;20474;-82
2023/09/09 05:59:47;;;;;;;2.00;1.90;;;17.40;99.90;;;;;;4962309;23;20482;-86
2023/09/09 06:02:15;;;;;;;0.80;0.80;;;17.50;99.90;;;;;;5166694;23;20842;-85
2023/09/09 06:04:43;;;;;;;2.10;2.00;;;17.80;99.90;;;;;;5421308;23;21001;-88
2023/09/09 06:09:46;;;;;;;1.10;1.10;;;18.00;99.90;;;;;;5534418;23;20474;-87
2023/09/09 06:12:13;;;;;;;2.43;2.23;;;18.20;99.90;;;;;;5111776;23;20568;-86
2023/09/09 06:14:40;;;;;;;1.90;1.80;;;18.40;99.90;;;;;;4922350;23;20562;-86
2023/09/09 06:17:09;;;;;;;1.03;1.03;;;18.70;99.90;;;;;;5128817;23;20536;-87
2023/09/09 06:19:37;;;;;;;1.63;1.53;;;18.80;99.90;;;;;;5290530;23;20510;-86
2023/09/09 06:22:05;;;;;;;1.70;1.60;;;19.00;99.90;;;;;;5128056;23;20487;-88
2023/09/09 06:29:37;;;;;;;1.43;1.40;;;19.60;99.90;;;;;;5069101;23;20527;-87
2023/09/09 06:32:06;;;;;;;2.00;1.90;;;19.90;99.90;;;;;;4891178;29;20517;-83
2023/09/09 06:34:34;;;;;;;1.80;1.70;;;20.00;99.90;;;;;;5074840;23;20545;-86
2023/09/09 06:39:37;;;;;;;3.97;3.77;;;20.80;99.90;;;;;;5468568;23;20617;-84
2023/09/09 06:42:06;;;;;;;1.30;1.20;;;21.10;99.90;;;;;;4886775;29;20452;-84
2023/09/09 06:55:14;;;;;;;1.97;1.87;;;22.30;99.90;;;;;;5597793;23;20492;-85
2023/09/09 06:57:40;;;;;;;2.63;2.53;;;22.80;99.90;;;;;;4884130;29;20413;-79
2023/09/09 07:00:08;;;;;;;2.40;2.30;;;23.10;99.90;;;;;;4894229;29;20430;-83
2023/09/09 07:02:35;;;;;;;1.70;1.60;;;23.40;99.90;;;;;;4887809;29;20425;-81
2023/09/09 07:05:03;;;;;;;1.50;1.40;;;23.90;99.90;;;;;;4888895;29;20468;-79
2023/09/09 07:07:30;;;;;;;1.80;1.70;;;24.40;99.90;;;;;;4888536;29;20540;-81
2023/09/09 07:10:08;;;;;;;3.57;3.37;;;25.00;99.90;;;;;;4887323;29;20419;-82
2023/09/09 07:12:35;;;;;;;1.63;1.53;;;25.00;99.90;;;;;;4892470;29;20491;-81
2023/09/09 07:15:03;;;;;;;2.40;2.30;;;25.40;99.90;;;;;;4894890;29;20437;-82
2023/09/09 07:17:30;;;;;;;2.03;1.93;;;26.10;99.90;;;;;;4891312;29;20735;-82
2023/09/09 07:19:57;;;;;;;1.97;1.87;;;25.70;99.90;;;;;;4889673;29;20657;-83
2023/09/09 07:22:24;;;;;;;1.93;1.73;;;26.50;99.90;;;;;;4888032;29;20449;-79
2023/09/09 07:24:50;;;;;;;1.73;1.63;;;27.60;98.60;;;;;;4878103;29;20556;-81
2023/09/09 07:27:17;;;;;;;3.03;2.83;;;27.80;96.60;;;;;;4882302;29;20423;-80
2023/09/09 07:29:45;;;;;;;2.43;2.23;;;28.40;94.90;;;;;;4890242;29;20537;-86
2023/09/09 07:32:11;;;;;;;1.30;1.30;;;27.40;95.00;;;;;;4897637;29;20432;-83
2023/09/09 07:34:38;;;;;;;2.50;2.40;;;28.30;95.00;;;;;;4889314;29;20477;-81
2023/09/09 07:37:06;;;;;;;1.60;1.50;;;28.60;93.50;;;;;;4894620;29;20424;-86
2023/09/09 07:39:52;;;;;;;1.20;1.20;;;28.30;91.70;;;;;;4890708;29;20533;-86
2023/09/09 07:42:19;;;;;;;1.77;1.67;;;28.00;93.40;;;;;;4881342;29;20488;-83
2023/09/09 07:44:46;;;;;;;2.43;2.23;;;28.80;91.70;;;;;;4894325;29;20877;-83
2023/09/09 07:47:13;;;;;;;2.90;2.70;;;29.40;90.50;;;;;;4891530;29;20532;-83
2023/09/09 07:49:40;;;;;;;1.43;1.37;;;29.70;90.20;;;;;;4897027;29;21013;-83
2023/09/09 07:52:08;;;;;;;2.70;2.50;;;29.40;89.20;;;;;;4888674;29;20453;-85
2023/09/09 07:54:35;;;;;;;1.87;1.77;;;29.70;87.00;;;;;;4885854;29;20423;-85
2023/09/09 07:57:02;;;;;;;9.03;2.47;;;29.50;86.00;;;;;;4896494;29;20479;-83
2023/09/09 07:59:29;;;;;;;1.53;1.43;;;29.90;86.50;;;;;;4894305;29;20449;-79
2023/09/09 08:01:58;;;;;;;2.40;2.30;;;30.10;83.20;;;;;;4889574;29;20771;-83
2023/09/09 08:04:25;;;;;;;2.50;2.27;;;29.70;83.80;;;;;;4896211;29;20445;-84
2023/09/09 08:06:53;;;;;;;1.77;1.67;;;29.80;85.00;;;;;;4896703;29;20507;-85
2023/09/09 08:09:20;;;;;;;1.97;1.87;;;30.30;84.40;;;;;;4888314;29;20451;-83
2023/09/09 08:11:56;;;;;;;1.77;1.67;;;30.00;83.30;;;;;;4896086;29;20467;-86
2023/09/09 08:14:23;;;;;;;1.40;1.30;;;30.80;84.10;;;;;;4902970;29;20471;-83
2023/09/09 08:16:50;;;;;;;3.43;3.13;;;30.20;83.50;;;;;;4899013;29;20512;-84
2023/09/09 08:19:17;;;;;;;2.17;2.07;;;30.70;83.20;;;;;;4894690;29;20860;-84
2023/09/09 08:21:44;;;;;;;2.70;2.50;;;31.50;80.30;;;;;;4893459;29;20453;-89
2023/09/09 08:24:11;;;;;;;1.77;1.67;;;30.70;80.30;;;;;;4893555;29;20519;-89
2023/09/09 08:26:39;;;;;;;1.70;1.60;;;30.50;81.10;;;;;;4900019;29;20495;-85
2023/09/09 08:29:06;;;;;;;2.57;2.47;;;30.20;83.60;;;;;;4911213;29;20630;-79
2023/09/09 08:31:35;;;;;;;2.03;1.93;;;29.70;81.70;;;;;;4903722;29;20433;-82
2023/09/09 08:34:04;;;;;;;1.90;1.73;;;30.00;81.90;;;;;;4901429;29;20445;-81
2023/09/09 08:36:32;;;;;;;1.40;1.30;;;30.90;79.50;;;;;;4902342;29;20527;-81
2023/09/09 08:38:59;;;;;;;2.03;1.60;;;31.10;77.10;;;;;;4901302;29;20483;-84
2023/09/09 08:41:57;;;;;;;1.37;1.37;;;31.00;77.90;;;;;;4891461;29;20531;-84
2023/09/09 08:44:41;;;;;;;1.70;1.60;;;31.10;77.30;;;;;;4884015;29;20789;-81
2023/09/09 08:49:43;;;;;;;2.10;2.00;;;30.90;78.20;;;;;;4852172;29;20465;-84
2023/09/09 08:54:54;;;;;;;1.77;1.67;;;31.20;77.10;;;;;;5425862;23;20513;-84
2023/09/09 08:57:27;;;;;;;1.73;1.63;;;31.50;74.90;;;;;;4891428;29;20453;-86
2023/09/09 08:59:56;;;;;;;1.93;1.80;;;31.40;75.00;;;;;;5059164;23;20585;-83
2023/09/09 09:02:23;;;;;;;2.03;1.93;;;32.00;74.80;;;;;;5030135;23;20493;-83
2023/09/09 09:15:32;;;;;;;1.90;1.80;;;32.60;72.40;;;;;;5145419;27;21213;-87
2023/09/09 09:18:00;;;;;;;1.87;1.77;;;30.60;75.90;;;;;;5136008;27;20442;-85
2023/09/09 09:20:29;;;;;;;1.73;1.63;;;30.40;74.50;;;;;;5134311;28;20442;-90
2023/09/09 09:22:58;;;;;;;1.90;1.60;;;30.20;74.30;;;;;;5141686;27;20464;-81
2023/09/09 09:25:28;;;;;;;1.47;1.37;;;30.20;75.30;;;;;;5132445;27;20446;-89
2023/09/09 09:27:57;;;;;;;2.40;2.20;;;29.60;77.70;;;;;;5137639;27;20474;-82
2023/09/09 09:30:25;;;;;;;1.60;1.50;;;29.30;77.00;;;;;;5120243;28;20603;-83
2023/09/09 09:32:56;;;;;;;1.30;1.30;;;29.30;76.70;;;;;;5131202;27;20481;-88
2023/09/09 09:35:28;;;;;;;1.70;1.60;;;29.00;78.30;;;;;;5138594;27;20449;-84
2023/09/09 09:38:06;;;;;;;1.73;1.47;;;29.30;79.10;;;;;;5141267;27;20461;-86
2023/09/09 09:40:35;;;;;;;1.67;1.57;;;29.30;79.50;;;;;;5324486;22;21517;-87
2023/09/09 09:43:02;;;;;;;1.60;1.50;;;29.30;79.00;;;;;;5102432;28;20437;-83
2023/09/09 09:45:30;;;;;;;4.37;3.33;;;29.00;79.60;;;;;;5093721;28;20437;-81
2023/09/09 09:48:01;;;;;;;2.03;1.93;;;28.90;76.70;;;;;;5094345;28;20464;-81
2023/09/09 09:50:34;;;;;;;1.87;1.77;;;28.50;78.90;;;;;;5093443;28;20440;-81
2023/09/09 09:53:08;;;;;;;2.90;2.70;;;28.30;80.20;;;;;;5085584;28;20478;-89
2023/09/09 09:55:36;;;;;;;1.67;1.57;;;28.40;81.20;;;;;;5097880;28;20450;-86
2023/09/09 09:58:05;;;;;;;2.13;2.03;;;28.40;80.50;;;;;;5090688;28;20794;-85
2023/09/09 10:00:33;;;;;;;2.53;2.40;;;28.20;79.80;;;;;;5095772;28;20418;-83
2023/09/09 10:03:02;;;;;;;1.87;1.77;;;28.50;79.10;;;;;;5097533;28;20501;-85
2023/09/09 10:05:33;;;;;;;1.40;1.40;;;28.40;79.00;;;;;;5095500;28;20554;-80
2023/09/09 10:08:12;;;;;;;1.53;1.43;;;28.30;78.70;;;;;;5092734;28;20419;-87
2023/09/09 10:11:03;;;;;;;1.67;1.57;;;28.40;78.00;;;;;;5093879;28;20425;-87
2023/09/09 10:13:44;;;;;;;1.57;1.47;;;28.20;77.90;;;;;;5087739;28;20448;-86
2023/09/09 10:16:14;;;;;;;1.20;1.20;;;28.20;78.20;;;;;;5083327;28;20415;-88
2023/09/09 10:18:44;;;;;;;1.63;1.57;;;28.40;78.00;;;;;;5082866;28;20636;-86
2023/09/09 10:21:12;;;;;;;2.10;1.70;;;28.20;78.80;;;;;;5086019;28;20448;-86
2023/09/09 10:23:45;;;;;;;1.17;1.17;;;28.20;79.70;;;;;;5212561;22;20534;-86
2023/09/09 10:26:13;;;;;;;1.23;1.20;;;28.40;77.80;;;;;;5254957;22;20660;-84
2023/09/09 10:28:41;;;;;;;2.00;1.90;;;28.70;78.20;;;;;;5100504;28;20694;-82
2023/09/09 10:33:42;;;;;;;1.37;1.27;;;28.50;78.00;;;;;;5023587;28;20455;-88
2023/09/09 10:36:12;;;;;;;2.43;2.33;;;28.50;76.80;;;;;;5078196;23;20588;-88
2023/09/09 10:38:40;;;;;;;2.57;2.40;;;28.60;76.30;;;;;;5039411;28;20409;-84
2023/09/09 10:41:09;;;;;;;1.10;1.10;;;28.60;77.30;;;;;;5037692;28;20500;-86
2023/09/09 10:43:38;;;;;;;2.60;2.40;;;28.70;77.00;;;;;;5042319;28;20545;-88
2023/09/09 10:46:08;;;;;;;1.80;1.70;;;28.40;76.30;;;;;;5039853;28;20748;-84
2023/09/09 10:48:35;;;;;;;1.83;1.73;;;28.30;77.90;;;;;;5047857;28;20482;-86
2023/09/09 10:51:08;;;;;;;1.20;1.20;;;28.60;79.50;;;;;;5042872;28;20436;-85
2023/09/09 10:53:38;;;;;;;1.20;1.20;;;28.50;77.70;;;;;;5043136;28;20439;-83
2023/09/09 10:56:16;;;;;;;1.30;1.30;;;28.20;76.70;;;;;;5023023;28;20420;-81
2023/09/09 10:58:44;;;;;;;2.13;2.03;;;28.10;77.80;;;;;;5044969;28;20480;-84
2023/09/09 11:01:25;;;;;;;1.37;1.30;;;28.20;78.10;;;;;;5029941;28;20465;-86
2023/09/09 11:03:53;;;;;;;1.67;1.57;;;28.20;77.20;;;;;;5032790;28;20516;-89
2023/09/09 11:06:25;;;;;;;3.10;2.90;;;28.00;77.60;;;;;;5046871;28;20401;-85
2023/09/09 11:08:58;;;;;;;1.30;1.20;;;27.90;78.80;;;;;;5043088;28;20537;-82
2023/09/09 11:11:30;;;;;;;3.07;2.97;;;28.00;78.80;;;;;;5043561;28;20432;-81
2023/09/09 11:13:57;;;;;;;2.17;2.03;;;27.90;78.20;;;;;;5049013;28;20464;-88
2023/09/09 11:16:39;;;;;;;1.63;1.53;;;28.10;79.20;;;;;;5047749;28;20450;-87
2023/09/09 11:19:11;;;;;;;2.43;2.33;;;28.20;78.70;;;;;;5131662;23;20468;-87
2023/09/09 11:21:44;;;;;;;1.90;1.80;;;28.30;78.00;;;;;;5043927;28;20480;-84
2023/09/09 11:24:13;;;;;;;2.50;2.33;;;28.30;77.50;;;;;;5044716;28;20461;-85
2023/09/09 11:26:46;;;;;;;2.53;2.33;;;28.10;78.30;;;;;;5036408;28;20741;-82
2023/09/09 11:29:15;;;;;;;2.03;1.93;;;28.30;77.30;;;;;;5041456;28;20519;-87
2023/09/09 11:32:02;;;;;;;1.30;1.30;;;28.50;77.30;;;;;;5036301;28;20433;-87
2023/09/09 11:34:32;;;;;;;2.60;2.40;;;28.30;78.50;;;;;;5034423;28;20462;-83
2023/09/09 11:37:01;;;;;;;2.03;1.93;;;28.30;76.50;;;;;;5022098;28;20741;-87
2023/09/09 11:39:28;;;;;;;1.80;1.70;;;28.40;76.60;;;;;;5028039;28;20429;-80
2023/09/09 11:41:55;;;;;;;1.30;1.30;;;28.30;76.40;;;;;;5039081;28;20420;-86
2023/09/09 11:44:22;;;;;;;2.53;2.37;;;28.20;76.90;;;;;;5143231;23;20461;-80
2023/09/09 11:46:50;;;;;;;1.47;1.40;;;28.50;76.90;;;;;;5028850;28;20580;-81
2023/09/09 11:49:18;;;;;;;3.23;2.13;;;28.50;76.10;;;;;;5028392;28;20451;-85
2023/09/09 11:51:46;;;;;;;2.40;2.20;;;28.60;76.20;;;;;;5007730;28;20425;-85
2023/09/09 11:54:20;;;;;;;1.77;1.67;;;28.50;76.50;;;;;;5022130;28;20452;-85
2023/09/09 11:56:48;;;;;;;1.30;1.30;;;28.50;74.80;;;;;;5026430;28;20506;-82
2023/09/09 11:59:15;;;;;;;2.33;2.20;;;28.60;75.20;;;;;;5031633;28;20456;-81
2023/09/09 12:01:43;;;;;;;1.80;1.70;;;28.40;74.70;;;;;;5042806;28;20695;-88
2023/09/09 12:04:12;;;;;;;2.27;2.17;;;28.10;76.60;;;;;;5024917;28;20722;-88
2023/09/09 12:06:43;;;;;;;1.90;1.80;;;28.20;78.10;;;;;;5094963;22;20488;-87
2023/09/09 12:09:10;;;;;;;2.17;2.07;;;28.40;78.10;;;;;;5059028;28;20419;-86
2023/09/09 12:11:40;;;;;;;1.67;1.57;;;28.40;77.10;;;;;;5053762;28;20491;-90
2023/09/09 12:14:09;;;;;;;2.07;1.77;;;28.50;74.70;;;;;;5052766;28;20469;-87
2023/09/09 12:16:38;;;;;;;1.60;1.50;;;28.40;76.20;;;;;;5055294;28;20423;-85
2023/09/09 12:19:11;;;;;;;3.00;2.37;;;28.60;76.00;;;;;;5055408;28;20462;-89
2023/09/09 12:21:52;;;;;;;0.80;0.80;;;28.80;75.80;;;;;;5046669;28;20413;-83
2023/09/09 12:24:20;;;;;;;2.13;1.83;;;28.80;75.30;;;;;;5028682;28;20487;-86
2023/09/09 12:26:53;;;;;;;1.93;1.83;;;28.70;75.10;;;;;;5050086;28;20428;-79
2023/09/09 12:29:27;;;;;;;2.00;1.90;;;28.50;73.70;;;;;;5054958;28;20606;-87
2023/09/09 12:31:57;;;;;;;1.20;1.20;;;28.30;74.20;;;;;;5056330;28;20785;-82
2023/09/09 12:34:26;;;;;;;1.63;1.53;;;28.30;75.70;;;;;;5062187;28;20474;-87
2023/09/09 12:36:58;;;;;;;1.23;1.23;;;28.20;75.20;;;;;;5055032;28;20423;-87
2023/09/09 12:39:27;;;;;;;1.53;1.43;;;28.00;74.50;;;;;;5060404;28;20424;-86
2023/09/09 12:42:05;;;;;;;1.63;1.53;;;28.20;76.40;;;;;;5059374;28;20451;-84
2023/09/09 12:44:34;;;;;;;2.70;2.60;;;28.10;73.70;;;;;;5224287;22;20481;-85
2023/09/09 12:47:05;;;;;;;2.90;1.73;;;28.10;75.30;;;;;;5069537;28;20457;-87
2023/09/09 12:49:32;;;;;;;2.27;2.17;;;28.40;75.20;;;;;;5053981;28;20453;-82
2023/09/09 12:51:59;;;;;;;1.57;1.47;;;28.40;74.90;;;;;;5074340;28;20446;-82
2023/09/09 12:54:26;;;;;;;1.67;1.60;;;28.20;74.30;;;;;;5072595;28;20456;-85
2023/09/09 12:56:53;;;;;;;2.07;1.97;;;28.20;75.20;;;;;;5075591;28;20451;-85
2023/09/09 12:59:23;;;;;;;1.07;1.07;;;28.40;75.50;;;;;;5074338;28;20426;-84
2023/09/09 13:01:50;;;;;;;1.10;1.10;;;28.30;74.90;;;;;;5081549;28;20543;-88
2023/09/09 13:04:22;;;;;;;2.77;2.57;;;28.20;74.80;;;;;;5062809;28;20604;-83
2023/09/09 13:06:49;;;;;;;1.33;1.27;;;28.40;74.70;;;;;;5067152;28;20451;-87
2023/09/09 13:09:16;;;;;;;1.50;1.40;;;28.50;75.70;;;;;;5071291;28;20423;-87
2023/09/09 13:11:43;;;;;;;8.53;4.07;;;28.60;73.70;;;;;;5064643;28;20485;-89
2023/09/09 13:14:10;;;;;;;1.47;1.37;;;28.60;74.20;;;;;;5065510;28;20535;-88
2023/09/09 13:16:45;;;;;;;1.50;1.40;;;28.60;73.60;;;;;;5062784;28;20403;-84
2023/09/09 13:19:12;;;;;;;1.67;1.57;;;28.60;74.30;;;;;;5093861;28;20440;-85
2023/09/09 13:21:40;;;;;;;2.07;1.97;;;28.40;74.10;;;;;;5085268;28;20475;-83
2023/09/09 13:24:12;;;;;;;1.60;1.50;;;28.30;74.10;;;;;;5093750;28;20470;-85
2023/09/09 13:26:41;;;;;;;1.17;1.17;;;28.10;74.00;;;;;;5071612;28;20414;-86
2023/09/09 13:29:09;;;;;;;2.30;2.10;;;27.90;76.00;;;;;;5070905;23;20457;-82
2023/09/09 13:34:23;;;;;;;0.97;0.97;;;28.20;76.20;;;;;;4992640;28;20463;-88
2023/09/09 13:36:51;;;;;;;3.27;2.13;;;28.20;75.90;;;;;;5227982;22;20732;-86
2023/09/09 13:39:19;;;;;;;2.40;2.30;;;28.10;74.60;;;;;;5027935;28;20452;-85
2023/09/09 13:41:46;;;;;;;1.30;1.30;;;28.10;75.00;;;;;;5040081;28;20497;-87
2023/09/09 13:46:49;;;;;;;2.23;2.13;;;28.10;76.00;;;;;;5206297;23;20529;-84
2023/09/09 13:49:16;;;;;;;1.23;1.23;;;28.00;74.70;;;;;;5338270;23;20600;-88
2023/09/09 13:51:43;;;;;;;1.93;1.83;;;27.90;75.50;;;;;;5035870;28;20494;-87
2023/09/09 13:56:54;;;;;;;1.50;1.40;;;28.00;75.50;;;;;;5157979;23;20542;-84
2023/09/09 14:02:03;;;;;;;1.03;1.03;;;28.00;74.50;;;;;;5171833;23;20485;-86
2023/09/09 14:07:13;;;;;;;1.37;1.27;;;28.00;75.80;;;;;;5400666;23;20523;-87
2023/09/09 14:09:40;;;;;;;1.50;1.30;;;28.00;75.20;;;;;;5254274;23;20698;-87
2023/09/09 14:12:07;;;;;;;3.17;2.03;;;28.00;75.20;;;;;;5107213;23;20501;-88
2023/09/09 14:17:05;;;;;;;1.83;1.73;;;27.90;73.50;;;;;;4985997;28;20442;-84
2023/09/09 14:19:32;;;;;;;1.83;1.73;;;27.90;74.30;;;;;;4987242;28;20494;-85
2023/09/09 14:21:59;;;;;;;1.40;1.30;;;28.00;74.70;;;;;;5167686;23;20486;-82
2023/09/09 14:24:26;;;;;;;3.23;2.00;;;28.00;74.50;;;;;;5092418;23;20489;-82
2023/09/09 14:26:53;;;;;;;2.03;1.93;;;27.90;76.20;;;;;;5227048;23;20667;-85
2023/09/09 14:29:20;;;;;;;1.30;1.23;;;27.90;75.70;;;;;;5009440;28;20431;-89
2023/09/09 14:31:47;;;;;;;1.27;1.23;;;27.90;75.20;;;;;;4999749;28;20422;-84
2023/09/09 14:36:42;;;;;;;2.00;1.90;;;27.90;76.00;;;;;;4981090;28;20448;-88
2023/09/09 14:41:55;;;;;;;1.47;1.30;;;27.80;75.80;;;;;;5044857;23;20496;-84